Login to view products.
 
Sunday, May 31, 2020 (14:06 UTC)
Al Bateen Executive Airport
ICAO: OMAD
IATA: AZI
  • METAR OMAD 311400Z 34006KT 8000 NSC 36/25 Q1002 NOSIG=
  • TAF OMAD 311100Z 3112/0118 31012KT 8000 NSC BECMG 3116/3118 VRB02KT BECMG 0100/0102 19012KT PROB30 0102/0106 3000 DU BECMG 0106/0108 30010KT BECMG 0116/0118 07005KT=
D:\Input Parser\Destinations\Final\11\OMADL12181100255114249.txt
1